1266-й км

Карта отелей и гостиниц, располагающихся рядом с аэропортом 1266-й км :

1266-й км Республика Коми 62° 5' 43.98" N, 49° 23' 12.5988" E
1266-й км Республика Коми 62° 5' 43.98" N, 49° 23' 12.5988" E
Код аэродрома ИКАО: 
HF0U
Код аэродрома RU: 
ХФ0У
Координаты: 
N62.09555° E049.38683°
Превышение над уровнем моря : 
99
Основная полоса: 
11/29
Курс магнитный: 
106,9/286,9
Длина основной ВПП: 
20
Ширина основной ВПП: 
20
Покрытие основной ВПП: 
Твёрдое (бетон)
Освещение ВПП: 
Нет
Тип: 
Вертодром
Класс аэродрома: 
Принадлежность: 
ГА
Статус: 
Действующий
Сайт: 
E-mail аэродрома: 
Страна: 
Россия
Регион: 
Республика Коми
Город: 
Дополнительная информация: 
Оператор: нет данных.

Найти трансфер

С помощью этой формы Вы можете найти трансфер из аэропорта 1266-й км в город, аэропорт или вокзал:

Карта места

Javascript is required to view this map.

Погода в аэропортах:

Авиационная погода в Якутске

Регион: 
Погода METAR: 
UEEE 271030Z 12002MPS 2100 -SHRA FU SCT050CB 12/10 Q0996 R23L/09//60 NOSIG RMK QFE739
Время наблюдения: 
2020-09-27T10:30:00Z
Температура C: 
12.0
Точка росы: 
10.0
Направление ветра: 
120
Скорость ветра (узлы): 
4
Метеорологическая видимость: 
1.3
Явления погоды: 
-SHRA FU
Условия полета: 
IFR
Аэропорт подробнее: 

Авиационная погода в Киеве

Регион: 
Погода METAR: 
UKKK 271030Z 11007MPS 080V140 6000 -RA OVC046 17/14 Q1007 R08/290254 TEMPO VRB12G18MPS 1500 TSRAGR SQ BKN015CB
Время наблюдения: 
2020-09-27T10:30:00Z
Температура C: 
17.0
Точка росы: 
14.0
Направление ветра: 
110
Скорость ветра (узлы): 
14
Метеорологическая видимость: 
3.73
Явления погоды: 
-RA
Условия полета: 
MVFR
Аэропорт подробнее: 

Авиационная погода в Ивано-Франковске

Регион: 
Погода METAR: 
UKLI 271030Z 09001MPS 8000 -SHRA BKN012CB BKN023 11/10 Q1007 R28/290565 NOSIG
Время наблюдения: 
2020-09-27T10:30:00Z
Температура C: 
11.0
Точка росы: 
10.0
Направление ветра: 
90
Скорость ветра (узлы): 
2
Метеорологическая видимость: 
4.97
Явления погоды: 
-SHRA
Условия полета: 
MVFR
Аэропорт подробнее: 

Авиационная погода в аэропорту Международный

Регион: 
Погода METAR: 
UKLL 271030Z 25003MPS 220V290 9999 -SHRA BKN007 BKN020CB 09/08 Q1006 R31/290055 NOSIG
Время наблюдения: 
2020-09-27T10:30:00Z
Температура C: 
9.0
Точка росы: 
8.0
Направление ветра: 
250
Скорость ветра (узлы): 
6
Метеорологическая видимость: 
6.21
Явления погоды: 
-SHRA
Условия полета: 
IFR
Аэропорт подробнее: